Naples, Maine
Current Conditions -  °F | °C
As of 6:54 AM on Thursday 27 Nov 2014 (Local Time) from KIZG Reporting Station
NA  
Wind Chill: 24°   Ceiling: NA
Heat Index: 30°   Visibility: 10mi
Dew Point: 24°   Wind: 6mph
Humidity: 79%   Direction: 330°NNW
Pressure: 29.82"   Gusts: NA
Location:  43.97°N, 70.61°W
Report Text: KIZG 271154Z AUTO 33005KT 10SM M01/M04 A2982 RMK AO2 SNB25E43 SLP105 P0000 60005 70117 T10111044 11006 21011 53018 $
Loading
Personal Weather Stations






























Interactive Weather Map New forecast layout! Learn more

10-Day Weather Forecast

Advertisements
Track Severe Weather on mobile